»·PEaware :: N27AX KGEG-KPDX

N27AX :: KGEG-KPDX

FLIGHT INFORMATION

Flight Status: Arrived
Operator: Privately registered:
United States
More flights under this callsign
Pilot: Nate M. (12976)
Aircraft: GATES LEARJET LEARJET 35/36
(LJ35)
More flights by this aircraft type
Origin: KGEG Spokane Intl
United States
Destination: KPDX Portland Intl
United States
More flights between these airports :: More routes between these airports
Route: GEG ZEGRO JORAD HHOOD4
File this flight plan on PilotEdge
Remarks:
Altitude:
(Current/Filed)
28,000ft
Speed:
(Current/Filed)
400kts
Departed: 05-Jul-18 03:10 PM
Arrived: 05-Jul-18 04:00 PM
Distance/Time
Traveled:
241nm/0:50
Distance/Time
To Go:
Arrived

Flight Plot

Page will automatically refresh every two minutes.

Flight plan parsing failed; only flown route is shown


Map Options




Map Legend


Flown Route
Filed Route
Departure Airport
Arrival Airport
Navaid (VOR, NDB)
Fix

Horizontal Profiles

Position Reports

Time Latitude Longitude Heading Altitude Ground
Speed
05-Jul-18 14:59 47.621032 -117.523918 349 2360ft 0kts
05-Jul-18 15:00 47.621032 -117.523918 349 2360ft 0kts
05-Jul-18 15:01 47.621032 -117.523918 349 2360ft 0kts
05-Jul-18 15:02 47.621032 -117.523918 349 2360ft 0kts
05-Jul-18 15:03 47.621032 -117.523918 349 2360ft 0kts
05-Jul-18 15:04 47.621032 -117.523918 349 2360ft 0kts
05-Jul-18 15:05 47.621032 -117.523918 349 2360ft 0kts
05-Jul-18 15:06 47.621032 -117.523918 349 2360ft 0kts
05-Jul-18 15:07 47.621842 -117.524796 322 2357ft 16kts
05-Jul-18 15:08 47.624866 -117.524253 32 2347ft 9kts
05-Jul-18 15:09 47.627566 -117.520240 43 2330ft 20kts
05-Jul-18 15:10 47.629583 -117.517280 41 2323ft 7kts
05-Jul-18 15:11 47.630161 -117.519887 225 2324ft 56kts
05-Jul-18 15:12 47.585087 -117.579717 218 5072ft 269kts
05-Jul-18 15:13 47.529968 -117.651548 218 9066ft 269kts
05-Jul-18 15:14 47.481703 -117.743324 236 13101ft 297kts
05-Jul-18 15:15 47.438845 -117.843251 226 17076ft 278kts
05-Jul-18 15:16 47.393402 -117.926419 226 21009ft 259kts
05-Jul-18 15:17 47.347734 -118.009814 227 24999ft 263kts
05-Jul-18 15:18 47.303268 -118.090759 227 27982ft 271kts
05-Jul-18 15:19 47.248905 -118.189477 228 28025ft 343kts
05-Jul-18 15:20 47.185257 -118.304662 228 28013ft 379kts
05-Jul-18 15:21 47.117299 -118.427086 228 27983ft 394kts
05-Jul-18 15:21 47.059230 -118.531252 228 27952ft 397kts
05-Jul-18 15:22 46.990491 -118.654057 227 27938ft 398kts
05-Jul-18 15:23 46.920529 -118.779399 227 27940ft 400kts
05-Jul-18 15:24 46.850009 -118.904293 227 27949ft 400kts
05-Jul-18 15:25 46.779473 -119.028591 226 27941ft 396kts
05-Jul-18 15:26 46.709522 -119.151241 226 27926ft 393kts
05-Jul-18 15:27 46.639555 -119.273433 226 27918ft 393kts
05-Jul-18 15:28 46.569654 -119.394974 226 27915ft 393kts
05-Jul-18 15:29 46.499711 -119.516060 226 27913ft 393kts
05-Jul-18 15:30 46.429488 -119.637061 226 27916ft 392kts
05-Jul-18 15:31 46.359352 -119.758294 226 27917ft 392kts
05-Jul-18 15:32 46.289034 -119.878472 226 27926ft 392kts
05-Jul-18 15:33 46.218424 -119.998579 226 27939ft 392kts
05-Jul-18 15:34 46.148417 -120.117148 226 27934ft 392kts
05-Jul-18 15:35 46.078654 -120.234792 226 27151ft 375kts
05-Jul-18 15:36 46.013038 -120.344972 226 25890ft 360kts
05-Jul-18 15:37 45.948382 -120.453114 225 24639ft 356kts
05-Jul-18 15:38 45.885088 -120.558623 225 24026ft 343kts
05-Jul-18 15:39 45.827685 -120.654537 231 24007ft 333kts
05-Jul-18 15:40 45.790269 -120.778648 242 23973ft 359kts
05-Jul-18 15:41 45.754516 -120.908608 243 22640ft 345kts
05-Jul-18 15:42 45.719664 -121.035102 243 21362ft 343kts
05-Jul-18 15:43 45.683835 -121.163773 243 19562ft 356kts
05-Jul-18 15:44 45.646811 -121.296460 243 17598ft 365kts
05-Jul-18 15:45 45.609134 -121.430948 244 15527ft 360kts
05-Jul-18 15:46 45.574749 -121.553481 244 12867ft 319kts
05-Jul-18 15:47 45.542731 -121.667433 245 10265ft 291kts
05-Jul-18 15:48 45.531843 -121.763133 267 10067ft 256kts
05-Jul-18 15:49 45.535220 -121.869574 269 10099ft 275kts
05-Jul-18 15:50 45.539048 -121.972295 272 8946ft 250kts
05-Jul-18 15:51 45.533557 -122.054760 239 6895ft 214kts
05-Jul-18 15:52 45.498463 -122.128661 237 6921ft 218kts
05-Jul-18 15:53 45.474961 -122.197240 275 6847ft 206kts
05-Jul-18 15:54 45.480626 -122.275533 278 4243ft 181kts
05-Jul-18 15:55 45.493882 -122.336827 299 3751ft 222kts
05-Jul-18 15:56 45.520517 -122.405718 299 3042ft 212kts
05-Jul-18 15:57 45.540974 -122.457921 299 1654ft 140kts
05-Jul-18 15:58 45.562314 -122.512392 299 944ft 163kts
05-Jul-18 15:59 45.582916 -122.565168 299 111ft 141kts
05-Jul-18 16:00 45.590272 -122.586515 274 21ft 0kts
05-Jul-18 16:01 45.589029 -122.584175 118 21ft 21kts
05-Jul-18 16:03 45.586673 -122.578152 118 22ft 20kts
05-Jul-18 16:04 45.584586 -122.577063 121 21ft 0kts

Navigation Log

Ident Type
Flight plan parsing failed, navigation log unavailable